sensor_id;sensor_type;location;lat;lon;timestamp;pressure;altitude;pressure_sealevel;temperature;humidity
34931;BME280;21134;49.646;8.560;2023-04-01T00:01:22;98916.19;;;10.60;78.72
34931;BME280;21134;49.646;8.560;2023-04-01T00:03:49;98916.28;;;10.57;80.44
34931;BME280;21134;49.646;8.560;2023-04-01T00:06:17;98909.34;;;10.60;79.20
34931;BME280;21134;49.646;8.560;2023-04-01T00:08:44;98909.97;;;10.68;79.21
34931;BME280;21134;49.646;8.560;2023-04-01T00:11:10;98914.41;;;10.63;78.55
34931;BME280;21134;49.646;8.560;2023-04-01T00:13:37;98906.31;;;10.79;78.00
34931;BME280;21134;49.646;8.560;2023-04-01T00:16:06;98917.63;;;10.70;77.96
34931;BME280;21134;49.646;8.560;2023-04-01T00:18:32;98911.53;;;10.74;77.37
34931;BME280;21134;49.646;8.560;2023-04-01T00:20:59;98912.38;;;10.75;78.51
34931;BME280;21134;49.646;8.560;2023-04-01T00:23:25;98910.56;;;10.78;78.33
34931;BME280;21134;49.646;8.560;2023-04-01T00:25:52;98912.38;;;10.75;77.83
34931;BME280;21134;49.646;8.560;2023-04-01T00:28:19;98918.25;;;10.78;76.93
34931;BME280;21134;49.646;8.560;2023-04-01T00:30:46;98907.16;;;10.79;78.69
34931;BME280;21134;49.646;8.560;2023-04-01T00:33:15;98919.03;;;10.82;78.04
34931;BME280;21134;49.646;8.560;2023-04-01T00:35:41;98913.09;;;10.80;76.62
34931;BME280;21134;49.646;8.560;2023-04-01T00:38:08;98914.59;;;10.87;77.65
34931;BME280;21134;49.646;8.560;2023-04-01T00:40:38;98909.13;;;10.69;78.14
34931;BME280;21134;49.646;8.560;2023-04-01T00:43:10;98903.25;;;10.66;77.50
34931;BME280;21134;49.646;8.560;2023-04-01T00:45:39;98916.13;;;10.63;78.37
34931;BME280;21134;49.646;8.560;2023-04-01T00:48:09;98905.00;;;10.64;78.66
34931;BME280;21134;49.646;8.560;2023-04-01T00:50:41;98910.84;;;10.69;78.51
34931;BME280;21134;49.646;8.560;2023-04-01T00:53:09;98916.97;;;10.62;78.75
34931;BME280;21134;49.646;8.560;2023-04-01T00:55:39;98900.59;;;10.69;77.76
34931;BME280;21134;49.646;8.560;2023-04-01T00:58:11;98907.50;;;10.65;78.75
34931;BME280;21134;49.646;8.560;2023-04-01T01:00:40;98904.84;;;10.68;78.24
34931;BME280;21134;49.646;8.560;2023-04-01T01:03:06;98905.03;;;10.62;78.34
34931;BME280;21134;49.646;8.560;2023-04-01T01:05:43;98901.44;;;10.69;78.17
34931;BME280;21134;49.646;8.560;2023-04-01T01:08:19;98904.94;;;10.65;78.15
34931;BME280;21134;49.646;8.560;2023-04-01T01:10:50;98894.78;;;10.62;78.20
34931;BME280;21134;49.646;8.560;2023-04-01T01:13:19;98902.47;;;10.62;78.29
34931;BME280;21134;49.646;8.560;2023-04-01T01:15:52;98895.56;;;10.66;78.04
34931;BME280;21134;49.646;8.560;2023-04-01T01:18:26;98881.84;;;10.68;77.68
34931;BME280;21134;49.646;8.560;2023-04-01T01:27:09;98876.22;;;10.56;78.16
34931;BME280;21134;49.646;8.560;2023-04-01T01:29:47;98885.50;;;10.60;78.38
34931;BME280;21134;49.646;8.560;2023-04-01T01:35:19;98876.81;;;10.65;77.56
34931;BME280;21134;49.646;8.560;2023-04-01T01:37:47;98878.91;;;10.82;76.90
34931;BME280;21134;49.646;8.560;2023-04-01T01:40:16;98877.59;;;10.69;78.06
34931;BME280;21134;49.646;8.560;2023-04-01T01:42:47;98867.59;;;10.60;77.44
34931;BME280;21134;49.646;8.560;2023-04-01T01:45:16;98864.31;;;10.55;77.89
34931;BME280;21134;49.646;8.560;2023-04-01T01:47:45;98863.44;;;10.56;78.31
34931;BME280;21134;49.646;8.560;2023-04-01T01:50:13;98857.47;;;10.55;77.26
34931;BME280;21134;49.646;8.560;2023-04-01T01:52:41;98853.13;;;10.59;76.78
34931;BME280;21134;49.646;8.560;2023-04-01T01:55:24;98858.41;;;10.53;78.27
34931;BME280;21134;49.646;8.560;2023-04-01T01:57:52;98848.09;;;10.56;77.02
34931;BME280;21134;49.646;8.560;2023-04-01T02:00:19;98852.59;;;10.47;77.73
34931;BME280;21134;49.646;8.560;2023-04-01T02:02:47;98853.56;;;10.43;78.07
34931;BME280;21134;49.646;8.560;2023-04-01T02:05:17;98852.00;;;10.38;78.45
34931;BME280;21134;49.646;8.560;2023-04-01T02:07:49;98853.97;;;10.28;79.40
34931;BME280;21134;49.646;8.560;2023-04-01T02:10:22;98866.69;;;10.30;79.05
34931;BME280;21134;49.646;8.560;2023-04-01T02:12:50;98860.50;;;10.38;78.24
34931;BME280;21134;49.646;8.560;2023-04-01T02:15:20;98859.81;;;10.32;78.46
34931;BME280;21134;49.646;8.560;2023-04-01T02:17:47;98858.03;;;10.35;78.22
34931;BME280;21134;49.646;8.560;2023-04-01T02:20:18;98858.75;;;10.40;77.26
34931;BME280;21134;49.646;8.560;2023-04-01T02:22:49;98847.72;;;10.38;78.29
34931;BME280;21134;49.646;8.560;2023-04-01T02:25:19;98855.59;;;10.31;78.88
34931;BME280;21134;49.646;8.560;2023-04-01T02:27:47;98856.19;;;10.40;78.90
34931;BME280;21134;49.646;8.560;2023-04-01T02:30:15;98846.88;;;10.38;78.36
34931;BME280;21134;49.646;8.560;2023-04-01T02:32:44;98854.56;;;10.36;78.34
34931;BME280;21134;49.646;8.560;2023-04-01T02:35:13;98860.81;;;10.26;79.23
34931;BME280;21134;49.646;8.560;2023-04-01T02:37:44;98855.88;;;10.18;80.07
34931;BME280;21134;49.646;8.560;2023-04-01T02:40:16;98864.34;;;10.20;80.01
34931;BME280;21134;49.646;8.560;2023-04-01T02:42:43;98867.16;;;10.10;80.62
34931;BME280;21134;49.646;8.560;2023-04-01T02:45:11;98865.59;;;10.04;81.10
34931;BME280;21134;49.646;8.560;2023-04-01T02:47:37;98863.56;;;10.17;80.25
34931;BME280;21134;49.646;8.560;2023-04-01T02:50:05;98865.84;;;10.29;79.29
34931;BME280;21134;49.646;8.560;2023-04-01T02:52:32;98861.97;;;10.13;80.63
34931;BME280;21134;49.646;8.560;2023-04-01T02:54:59;98869.03;;;10.03;81.70
34931;BME280;21134;49.646;8.560;2023-04-01T02:57:26;98861.31;;;10.05;81.45
34931;BME280;21134;49.646;8.560;2023-04-01T02:59:53;98869.19;;;9.97;82.72
34931;BME280;21134;49.646;8.560;2023-04-01T03:02:19;98861.31;;;10.06;81.75
34931;BME280;21134;49.646;8.560;2023-04-01T03:04:46;98849.50;;;10.02;82.35
34931;BME280;21134;49.646;8.560;2023-04-01T03:07:12;98857.31;;;9.94;81.89
34931;BME280;21134;49.646;8.560;2023-04-01T03:09:39;98847.72;;;10.04;81.02
34931;BME280;21134;49.646;8.560;2023-04-01T03:12:06;98852.00;;;10.04;81.51
34931;BME280;21134;49.646;8.560;2023-04-01T03:14:34;98842.75;;;9.99;81.56
34931;BME280;21134;49.646;8.560;2023-04-01T03:17:00;98849.59;;;9.97;81.90
34931;BME280;21134;49.646;8.560;2023-04-01T03:19:26;98856.50;;;9.94;82.04
34931;BME280;21134;49.646;8.560;2023-04-01T03:21:53;98863.09;;;10.02;80.88
34931;BME280;21134;49.646;8.560;2023-04-01T03:24:19;98869.13;;;10.00;81.37
34931;BME280;21134;49.646;8.560;2023-04-01T03:26:46;98855.38;;;10.04;80.34
34931;BME280;21134;49.646;8.560;2023-04-01T03:29:13;98861.47;;;10.00;81.37
34931;BME280;21134;49.646;8.560;2023-04-01T03:31:42;98851.97;;;10.05;81.65
34931;BME280;21134;49.646;8.560;2023-04-01T03:34:08;98854.63;;;10.00;81.67
34931;BME280;21134;49.646;8.560;2023-04-01T03:36:35;98865.69;;;10.01;82.28
34931;BME280;21134;49.646;8.560;2023-04-01T03:39:02;98866.56;;;10.00;82.83
34931;BME280;21134;49.646;8.560;2023-04-01T03:41:29;98872.47;;;10.02;83.10
34931;BME280;21134;49.646;8.560;2023-04-01T03:43:56;98874.00;;;10.09;81.53
34931;BME280;21134;49.646;8.560;2023-04-01T03:46:23;98864.56;;;10.11;81.56
34931;BME280;21134;49.646;8.560;2023-04-01T03:48:50;98867.81;;;10.18;81.33
34931;BME280;21134;49.646;8.560;2023-04-01T03:51:17;98874.72;;;10.14;81.54
34931;BME280;21134;49.646;8.560;2023-04-01T03:53:44;98863.72;;;10.11;81.70
34931;BME280;21134;49.646;8.560;2023-04-01T03:56:10;98874.03;;;10.08;81.96
34931;BME280;21134;49.646;8.560;2023-04-01T03:58:37;98870.53;;;10.12;82.11
34931;BME280;21134;49.646;8.560;2023-04-01T04:01:13;98873.19;;;10.07;83.00
34931;BME280;21134;49.646;8.560;2023-04-01T04:03:39;98867.31;;;10.05;82.96
34931;BME280;21134;49.646;8.560;2023-04-01T04:06:10;98868.22;;;10.01;84.05
34931;BME280;21134;49.646;8.560;2023-04-01T04:08:37;98869.13;;;9.98;83.55
34931;BME280;21134;49.646;8.560;2023-04-01T04:11:04;98876.84;;;9.97;84.65
34931;BME280;21134;49.646;8.560;2023-04-01T04:13:30;98868.31;;;9.98;84.15
34931;BME280;21134;49.646;8.560;2023-04-01T04:15:58;98866.50;;;10.01;83.59
34931;BME280;21134;49.646;8.560;2023-04-01T04:18:24;98877.47;;;10.07;83.65
34931;BME280;21134;49.646;8.560;2023-04-01T04:20:51;98861.16;;;10.11;82.72
34931;BME280;21134;49.646;8.560;2023-04-01T04:23:19;98863.78;;;10.09;83.45
34931;BME280;21134;49.646;8.560;2023-04-01T04:25:53;98856.19;;;10.06;83.48
34931;BME280;21134;49.646;8.560;2023-04-01T04:28:20;98862.81;;;10.13;82.92
34931;BME280;21134;49.646;8.560;2023-04-01T04:30:46;98857.84;;;10.09;82.42
34931;BME280;21134;49.646;8.560;2023-04-01T04:33:13;98867.19;;;10.08;82.89
34931;BME280;21134;49.646;8.560;2023-04-01T04:35:39;98860.19;;;10.16;82.42
34931;BME280;21134;49.646;8.560;2023-04-01T04:38:06;98853.31;;;10.18;82.52
34931;BME280;21134;49.646;8.560;2023-04-01T04:40:35;98856.81;;;10.14;82.67
34931;BME280;21134;49.646;8.560;2023-04-01T04:43:02;98860.16;;;10.18;82.68
34931;BME280;21134;49.646;8.560;2023-04-01T04:45:29;98851.75;;;10.13;81.58
34931;BME280;21134;49.646;8.560;2023-04-01T04:47:55;98864.53;;;10.13;82.10
34931;BME280;21134;49.646;8.560;2023-04-01T04:50:23;98861.06;;;10.15;81.78
34931;BME280;21134;49.646;8.560;2023-04-01T04:52:49;98861.09;;;10.14;82.52
34931;BME280;21134;49.646;8.560;2023-04-01T04:55:16;98862.75;;;10.16;82.06
34931;BME280;21134;49.646;8.560;2023-04-01T04:57:44;98859.38;;;10.14;82.13
34931;BME280;21134;49.646;8.560;2023-04-01T05:00:11;98869.53;;;10.17;82.02
34931;BME280;21134;49.646;8.560;2023-04-01T05:02:38;98867.78;;;10.19;81.90
34931;BME280;21134;49.646;8.560;2023-04-01T05:05:05;98865.34;;;10.15;82.68
34931;BME280;21134;49.646;8.560;2023-04-01T05:07:33;98862.50;;;10.25;80.47
34931;BME280;21134;49.646;8.560;2023-04-01T05:09:59;98874.53;;;10.22;81.29
34931;BME280;21134;49.646;8.560;2023-04-01T05:12:26;98872.88;;;10.19;82.48
34931;BME280;21134;49.646;8.560;2023-04-01T05:14:54;98865.97;;;10.23;81.03
34931;BME280;21134;49.646;8.560;2023-04-01T05:17:20;98863.41;;;10.24;81.52
34931;BME280;21134;49.646;8.560;2023-04-01T05:19:47;98876.16;;;10.26;81.42
34931;BME280;21134;49.646;8.560;2023-04-01T05:22:13;98862.59;;;10.22;82.37
34931;BME280;21134;49.646;8.560;2023-04-01T05:24:40;98855.53;;;10.32;81.07
34931;BME280;21134;49.646;8.560;2023-04-01T05:27:06;98864.06;;;10.33;80.46
34931;BME280;21134;49.646;8.560;2023-04-01T05:29:32;98854.75;;;10.30;80.96
34931;BME280;21134;49.646;8.560;2023-04-01T05:32:01;98859.97;;;10.24;81.82
34931;BME280;21134;49.646;8.560;2023-04-01T05:34:28;98853.97;;;10.27;81.94
34931;BME280;21134;49.646;8.560;2023-04-01T05:36:54;98852.28;;;10.25;82.55
34931;BME280;21134;49.646;8.560;2023-04-01T05:39:21;98854.00;;;10.25;81.55
34931;BME280;21134;49.646;8.560;2023-04-01T05:41:48;98853.97;;;10.28;82.29
34931;BME280;21134;49.646;8.560;2023-04-01T05:44:15;98853.06;;;10.29;82.23
34931;BME280;21134;49.646;8.560;2023-04-01T05:46:41;98853.59;;;10.42;80.82
34931;BME280;21134;49.646;8.560;2023-04-01T05:49:09;98849.47;;;10.36;82.17
34931;BME280;21134;49.646;8.560;2023-04-01T05:51:36;98848.63;;;10.36;82.19
34931;BME280;21134;49.646;8.560;2023-04-01T05:54:03;98844.41;;;10.35;82.36
34931;BME280;21134;49.646;8.560;2023-04-01T05:56:30;98843.53;;;10.36;82.29
34931;BME280;21134;49.646;8.560;2023-04-01T05:58:56;98850.38;;;10.34;82.47
34931;BME280;21134;49.646;8.560;2023-04-01T06:01:23;98842.00;;;10.29;83.62
34931;BME280;21134;49.646;8.560;2023-04-01T06:03:50;98847.06;;;10.30;83.05
34931;BME280;21134;49.646;8.560;2023-04-01T06:06:25;98843.59;;;10.33;84.22
34931;BME280;21134;49.646;8.560;2023-04-01T06:08:52;98846.31;;;10.27;83.69
34931;BME280;21134;49.646;8.560;2023-04-01T06:11:26;98843.66;;;10.31;83.19
34931;BME280;21134;49.646;8.560;2023-04-01T06:14:18;98842.06;;;10.25;83.20
34931;BME280;21134;49.646;8.560;2023-04-01T06:17:03;98842.72;;;10.34;82.41
34931;BME280;21134;49.646;8.560;2023-04-01T06:19:40;98842.69;;;10.35;82.78
34931;BME280;21134;49.646;8.560;2023-04-01T06:22:37;98847.88;;;10.32;82.83
34931;BME280;21134;49.646;8.560;2023-04-01T06:25:21;98847.13;;;10.29;83.02
34931;BME280;21134;49.646;8.560;2023-04-01T06:28:01;98844.63;;;10.25;84.00
34931;BME280;21134;49.646;8.560;2023-04-01T06:30:41;98841.03;;;10.33;83.59
34931;BME280;21134;49.646;8.560;2023-04-01T06:33:20;98835.22;;;10.28;83.10
34931;BME280;21134;49.646;8.560;2023-04-01T06:36:08;98830.13;;;10.28;83.79
34931;BME280;21134;49.646;8.560;2023-04-01T06:38:48;98841.19;;;10.28;83.66
34931;BME280;21134;49.646;8.560;2023-04-01T06:41:28;98841.19;;;10.27;83.24
34931;BME280;21134;49.646;8.560;2023-04-01T06:44:12;98837.78;;;10.28;83.52
34931;BME280;21134;49.646;8.560;2023-04-01T06:46:45;98837.72;;;10.31;83.21
34931;BME280;21134;49.646;8.560;2023-04-01T06:49:24;98844.50;;;10.32;84.25
34931;BME280;21134;49.646;8.560;2023-04-01T06:51:59;98841.19;;;10.28;83.52
34931;BME280;21134;49.646;8.560;2023-04-01T06:54:31;98848.00;;;10.28;83.70
34931;BME280;21134;49.646;8.560;2023-04-01T06:57:03;98843.72;;;10.28;83.90
34931;BME280;21134;49.646;8.560;2023-04-01T06:59:33;98837.72;;;10.29;83.51
34931;BME280;21134;49.646;8.560;2023-04-01T07:02:05;98838.66;;;10.27;83.07
34931;BME280;21134;49.646;8.560;2023-04-01T07:04:43;98839.06;;;10.42;81.59
34931;BME280;21134;49.646;8.560;2023-04-01T07:07:16;98845.03;;;10.43;82.76
34931;BME280;21134;49.646;8.560;2023-04-01T07:09:51;98847.00;;;10.33;82.01
34931;BME280;21134;49.646;8.560;2023-04-01T07:12:21;98841.59;;;10.44;81.52
34931;BME280;21134;49.646;8.560;2023-04-01T07:14:53;98844.31;;;10.38;81.67
34931;BME280;21134;49.646;8.560;2023-04-01T07:17:23;98850.19;;;10.41;81.48
34931;BME280;21134;49.646;8.560;2023-04-01T07:19:53;98851.66;;;10.50;81.71
34931;BME280;21134;49.646;8.560;2023-04-01T07:22:27;98848.88;;;10.59;81.01
34931;BME280;21134;49.646;8.560;2023-04-01T07:24:57;98850.72;;;10.53;81.21
34931;BME280;21134;49.646;8.560;2023-04-01T07:27:27;98854.16;;;10.53;80.75
34931;BME280;21134;49.646;8.560;2023-04-01T07:29:55;98855.75;;;10.56;80.80
34931;BME280;21134;49.646;8.560;2023-04-01T07:32:29;98865.97;;;10.57;81.69
34931;BME280;21134;49.646;8.560;2023-04-01T07:35:11;98861.81;;;10.53;82.15
34931;BME280;21134;49.646;8.560;2023-04-01T07:37:47;98851.31;;;10.62;81.53
34931;BME280;21134;49.646;8.560;2023-04-01T07:40:28;98859.47;;;10.75;81.37
34931;BME280;21134;49.646;8.560;2023-04-01T07:43:09;98858.53;;;10.79;80.55
34931;BME280;21134;49.646;8.560;2023-04-01T07:45:45;98860.09;;;10.85;80.92
34931;BME280;21134;49.646;8.560;2023-04-01T07:48:22;98854.25;;;10.80;81.32
34931;BME280;21134;49.646;8.560;2023-04-01T07:50:59;98852.44;;;10.83;80.80
34931;BME280;21134;49.646;8.560;2023-04-01T07:53:33;98859.19;;;10.86;81.49
34931;BME280;21134;49.646;8.560;2023-04-01T07:56:07;98860.09;;;10.85;81.14
34931;BME280;21134;49.646;8.560;2023-04-01T07:58:44;98868.59;;;10.85;82.38
34931;BME280;21134;49.646;8.560;2023-04-01T08:01:20;98860.47;;;11.01;81.20
34931;BME280;21134;49.646;8.560;2023-04-01T08:04:12;98869.13;;;10.97;80.77
34931;BME280;21134;49.646;8.560;2023-04-01T08:06:47;98862.41;;;10.92;81.65
34931;BME280;21134;49.646;8.560;2023-04-01T08:09:22;98864.16;;;10.90;81.84
34931;BME280;21134;49.646;8.560;2023-04-01T08:12:03;98865.06;;;10.89;82.35
34931;BME280;21134;49.646;8.560;2023-04-01T08:14:38;98869.44;;;10.86;82.92
34931;BME280;21134;49.646;8.560;2023-04-01T08:17:11;98877.88;;;10.88;82.90
34931;BME280;21134;49.646;8.560;2023-04-01T08:19:55;98876.09;;;10.91;82.88
34931;BME280;21134;49.646;8.560;2023-04-01T08:22:26;98877.94;;;10.86;83.67
34931;BME280;21134;49.646;8.560;2023-04-01T08:24:55;98879.50;;;10.92;82.30
34931;BME280;21134;49.646;8.560;2023-04-01T08:27:31;98875.59;;;10.79;83.39
34931;BME280;21134;49.646;8.560;2023-04-01T08:30:04;98869.63;;;10.78;84.03
34931;BME280;21134;49.646;8.560;2023-04-01T08:32:34;98885.13;;;10.74;83.78
34931;BME280;21134;49.646;8.560;2023-04-01T08:35:09;98878.25;;;10.76;84.29
34931;BME280;21134;49.646;8.560;2023-04-01T08:37:41;98875.56;;;10.80;83.27
34931;BME280;21134;49.646;8.560;2023-04-01T08:40:37;98884.06;;;10.81;83.60
34931;BME280;21134;49.646;8.560;2023-04-01T08:43:10;98893.47;;;10.80;83.75
34931;BME280;21134;49.646;8.560;2023-04-01T08:46:08;98883.94;;;10.85;83.49
34931;BME280;21134;49.646;8.560;2023-04-01T08:49:01;98887.09;;;10.95;83.38
34931;BME280;21134;49.646;8.560;2023-04-01T08:52:02;98881.88;;;10.98;84.11
34931;BME280;21134;49.646;8.560;2023-04-01T08:54:56;98881.75;;;11.03;84.53
34931;BME280;21134;49.646;8.560;2023-04-01T08:57:38;98879.84;;;11.09;83.14
34931;BME280;21134;49.646;8.560;2023-04-01T09:00:15;98884.66;;;11.20;83.17
34931;BME280;21134;49.646;8.560;2023-04-01T09:03:09;98887.91;;;11.25;83.01
34931;BME280;21134;49.646;8.560;2023-04-01T09:08:57;98889.38;;;11.34;83.55
34931;BME280;21134;49.646;8.560;2023-04-01T09:11:35;98891.03;;;11.35;83.07
34931;BME280;21134;49.646;8.560;2023-04-01T09:14:37;98892.66;;;11.37;82.76
34931;BME280;21134;49.646;8.560;2023-04-01T09:17:29;98886.75;;;11.35;84.32
34931;BME280;21134;49.646;8.560;2023-04-01T09:20:17;98891.91;;;11.34;83.31
34931;BME280;21134;49.646;8.560;2023-04-01T09:22:51;98895.16;;;11.39;83.04
34931;BME280;21134;49.646;8.560;2023-04-01T09:25:45;98899.03;;;11.24;84.66
34931;BME280;21134;49.646;8.560;2023-04-01T09:28:18;98897.31;;;11.25;85.16
34931;BME280;21134;49.646;8.560;2023-04-01T09:30:57;98901.69;;;11.21;84.66
34931;BME280;21134;49.646;8.560;2023-04-01T09:33:47;98910.13;;;11.25;85.95
34931;BME280;21134;49.646;8.560;2023-04-01T09:36:25;98910.75;;;11.33;84.34
34931;BME280;21134;49.646;8.560;2023-04-01T09:38:56;98904.16;;;11.24;85.63
34931;BME280;21134;49.646;8.560;2023-04-01T09:41:29;98906.66;;;11.26;86.10
34931;BME280;21134;49.646;8.560;2023-04-01T09:44:03;98920.19;;;11.31;86.78
34931;BME280;21134;49.646;8.560;2023-04-01T09:46:43;98915.16;;;11.28;86.19
34931;BME280;21134;49.646;8.560;2023-04-01T09:49:30;98917.75;;;11.26;87.13
34931;BME280;21134;49.646;8.560;2023-04-01T09:52:21;98910.84;;;11.30;86.79
34931;BME280;21134;49.646;8.560;2023-04-01T09:55:14;98907.28;;;11.34;86.60
34931;BME280;21134;49.646;8.560;2023-04-01T10:00:55;98914.97;;;11.34;88.13
34931;BME280;21134;49.646;8.560;2023-04-01T10:09:45;98923.13;;;11.47;87.66
34931;BME280;21134;49.646;8.560;2023-04-01T10:12:49;98921.94;;;11.58;86.07
34931;BME280;21134;49.646;8.560;2023-04-01T10:15:38;98929.22;;;11.71;85.27
34931;BME280;21134;49.646;8.560;2023-04-01T10:18:25;98929.38;;;11.66;83.91
34931;BME280;21134;49.646;8.560;2023-04-01T10:21:07;98920.47;;;11.78;85.13
34931;BME280;21134;49.646;8.560;2023-04-01T10:24:00;98927.34;;;11.76;86.48
34931;BME280;21134;49.646;8.560;2023-04-01T10:26:51;98922.72;;;11.89;85.45
34931;BME280;21134;49.646;8.560;2023-04-01T10:36:10;98925.34;;;12.14;84.10
34931;BME280;21134;49.646;8.560;2023-04-01T10:39:08;98924.31;;;12.19;81.89
34931;BME280;21134;49.646;8.560;2023-04-01T10:41:56;98926.13;;;12.16;82.58
34931;BME280;21134;49.646;8.560;2023-04-01T10:44:51;98920.16;;;12.15;82.48
34931;BME280;21134;49.646;8.560;2023-04-01T10:54:18;98921.78;;;12.18;80.67
34931;BME280;21134;49.646;8.560;2023-04-01T10:56:54;98923.56;;;12.16;80.92
34931;BME280;21134;49.646;8.560;2023-04-01T10:59:43;98935.59;;;12.14;81.05
34931;BME280;21134;49.646;8.560;2023-04-01T11:02:45;98929.94;;;12.04;83.58
34931;BME280;21134;49.646;8.560;2023-04-01T11:12:14;98933.09;;;11.84;87.76
34931;BME280;21134;49.646;8.560;2023-04-01T11:18:05;98948.97;;;11.67;90.10
34931;BME280;21134;49.646;8.560;2023-04-01T11:21:17;98937.28;;;11.58;91.07
34931;BME280;21134;49.646;8.560;2023-04-01T11:23:54;98942.22;;;11.64;90.91
34931;BME280;21134;49.646;8.560;2023-04-01T11:26:41;98943.84;;;11.67;90.64
34931;BME280;21134;49.646;8.560;2023-04-01T11:29:29;98938.41;;;11.78;89.63
34931;BME280;21134;49.646;8.560;2023-04-01T11:32:07;98935.84;;;11.78;88.96
34931;BME280;21134;49.646;8.560;2023-04-01T11:34:50;98935.59;;;11.87;85.59
34931;BME280;21134;49.646;8.560;2023-04-01T11:37:34;98944.75;;;11.94;87.68
34931;BME280;21134;49.646;8.560;2023-04-01T11:40:12;98942.19;;;11.94;86.81
34931;BME280;21134;49.646;8.560;2023-04-01T11:42:49;98941.31;;;11.95;87.93
34931;BME280;21134;49.646;8.560;2023-04-01T11:45:27;98952.28;;;11.99;85.80
34931;BME280;21134;49.646;8.560;2023-04-01T11:48:19;98948.00;;;11.99;85.88
34931;BME280;21134;49.646;8.560;2023-04-01T11:51:16;98945.53;;;11.96;86.67
34931;BME280;21134;49.646;8.560;2023-04-01T11:53:54;98946.97;;;12.05;85.25
34931;BME280;21134;49.646;8.560;2023-04-01T11:56:38;98956.13;;;12.12;84.77
34931;BME280;21134;49.646;8.560;2023-04-01T11:59:38;98956.28;;;12.07;84.71
34931;BME280;21134;49.646;8.560;2023-04-01T12:02:16;98964.09;;;12.04;84.02
34931;BME280;21134;49.646;8.560;2023-04-01T12:08:09;98969.91;;;12.09;83.06
34931;BME280;21134;49.646;8.560;2023-04-01T12:10:40;98969.56;;;12.20;81.29
34931;BME280;21134;49.646;8.560;2023-04-01T12:13:25;98966.16;;;12.20;82.46
34931;BME280;21134;49.646;8.560;2023-04-01T12:16:16;98978.00;;;12.24;82.08
34931;BME280;21134;49.646;8.560;2023-04-01T12:18:52;98965.25;;;12.47;81.30
34931;BME280;21134;49.646;8.560;2023-04-01T12:21:25;98969.94;;;12.61;78.69
34931;BME280;21134;49.646;8.560;2023-04-01T12:24:22;98965.94;;;12.52;79.30
34931;BME280;21134;49.646;8.560;2023-04-01T12:27:02;98968.81;;;12.43;80.06
34931;BME280;21134;49.646;8.560;2023-04-01T12:29:59;98963.03;;;12.37;79.57
34931;BME280;21134;49.646;8.560;2023-04-01T12:32:35;98975.94;;;12.35;79.36
34931;BME280;21134;49.646;8.560;2023-04-01T12:35:21;98977.09;;;12.25;80.14
34931;BME280;21134;49.646;8.560;2023-04-01T12:37:57;98979.75;;;12.22;79.18
34931;BME280;21134;49.646;8.560;2023-04-01T12:40:37;98971.13;;;12.24;79.04
34931;BME280;21134;49.646;8.560;2023-04-01T12:43:28;98970.50;;;12.18;78.35
34931;BME280;21134;49.646;8.560;2023-04-01T12:46:08;98980.53;;;12.25;78.17
34931;BME280;21134;49.646;8.560;2023-04-01T12:48:52;98973.38;;;12.35;78.74
34931;BME280;21134;49.646;8.560;2023-04-01T12:51:46;98970.81;;;12.35;79.10
34931;BME280;21134;49.646;8.560;2023-04-01T12:54:39;98968.13;;;12.38;78.84
34931;BME280;21134;49.646;8.560;2023-04-01T12:57:22;98969.09;;;12.34;79.15
34931;BME280;21134;49.646;8.560;2023-04-01T13:00:08;98974.09;;;12.39;78.41
34931;BME280;21134;49.646;8.560;2023-04-01T13:02:49;98978.31;;;12.41;79.06
34931;BME280;21134;49.646;8.560;2023-04-01T13:05:51;98987.69;;;12.41;77.69
34931;BME280;21134;49.646;8.560;2023-04-01T13:08:30;98992.91;;;12.39;78.61
34931;BME280;21134;49.646;8.560;2023-04-01T13:11:09;98982.63;;;12.39;78.73
34931;BME280;21134;49.646;8.560;2023-04-01T13:16:48;98986.28;;;12.32;79.71
34931;BME280;21134;49.646;8.560;2023-04-01T13:19:21;98999.13;;;12.32;79.49
34931;BME280;21134;49.646;8.560;2023-04-01T13:21:54;98990.44;;;12.36;78.97
34931;BME280;21134;49.646;8.560;2023-04-01T13:24:34;98995.69;;;12.31;78.85
34931;BME280;21134;49.646;8.560;2023-04-01T13:27:09;98999.00;;;12.35;78.43
34931;BME280;21134;49.646;8.560;2023-04-01T13:29:42;98994.91;;;12.29;78.88
34931;BME280;21134;49.646;8.560;2023-04-01T13:32:20;99002.63;;;12.29;79.99
34931;BME280;21134;49.646;8.560;2023-04-01T13:35:02;99008.47;;;12.33;78.91
34931;BME280;21134;49.646;8.560;2023-04-01T13:37:44;99015.28;;;12.34;79.52
34931;BME280;21134;49.646;8.560;2023-04-01T13:40:41;99018.91;;;12.28;80.00
34931;BME280;21134;49.646;8.560;2023-04-01T13:43:15;99016.06;;;12.36;79.03
34931;BME280;21134;49.646;8.560;2023-04-01T13:48:58;99013.81;;;12.27;80.14
34931;BME280;21134;49.646;8.560;2023-04-01T13:51:52;99022.47;;;12.23;80.23
34931;BME280;21134;49.646;8.560;2023-04-01T13:54:32;99015.34;;;12.32;79.83
34931;BME280;21134;49.646;8.560;2023-04-01T13:57:20;99017.38;;;12.21;83.08
34931;BME280;21134;49.646;8.560;2023-04-01T14:00:19;99021.88;;;12.15;84.38
34931;BME280;21134;49.646;8.560;2023-04-01T14:03:09;99024.06;;;11.99;86.31
34931;BME280;21134;49.646;8.560;2023-04-01T14:05:56;99032.78;;;11.93;86.47
34931;BME280;21134;49.646;8.560;2023-04-01T14:08:36;99023.97;;;11.72;87.40
34931;BME280;21134;49.646;8.560;2023-04-01T14:11:15;99035.31;;;11.65;85.14
34931;BME280;21134;49.646;8.560;2023-04-01T14:13:52;99030.25;;;11.62;88.27
34931;BME280;21134;49.646;8.560;2023-04-01T14:19:27;99035.06;;;11.73;86.39
34931;BME280;21134;49.646;8.560;2023-04-01T14:22:05;99044.50;;;11.71;87.86
34931;BME280;21134;49.646;8.560;2023-04-01T14:24:52;99047.84;;;11.74;86.96
34931;BME280;21134;49.646;8.560;2023-04-01T14:27:45;99052.19;;;11.71;86.50
34931;BME280;21134;49.646;8.560;2023-04-01T14:30:43;99043.41;;;11.79;85.50
34931;BME280;21134;49.646;8.560;2023-04-01T14:33:26;99062.03;;;11.86;84.96
34931;BME280;21134;49.646;8.560;2023-04-01T14:36:09;99052.59;;;11.88;84.69
34931;BME280;21134;49.646;8.560;2023-04-01T14:38:52;99059.63;;;11.80;86.35
34931;BME280;21134;49.646;8.560;2023-04-01T14:41:28;99052.63;;;11.86;85.21